sensor_id;sensor_type;location;lat;lon;timestamp;temperature;humidity
42479;DHT22;28110;47.080;9.476;2023-06-10T00:00:54;20.30;91.70
42479;DHT22;28110;47.080;9.476;2023-06-10T00:03:21;20.40;91.60
42479;DHT22;28110;47.080;9.476;2023-06-10T00:05:49;20.40;91.40
42479;DHT22;28110;47.080;9.476;2023-06-10T00:08:14;20.50;91.60
42479;DHT22;28110;47.080;9.476;2023-06-10T00:10:45;20.60;91.60
42479;DHT22;28110;47.080;9.476;2023-06-10T00:13:10;20.60;91.40
42479;DHT22;28110;47.080;9.476;2023-06-10T00:15:37;20.60;91.50
42479;DHT22;28110;47.080;9.476;2023-06-10T00:18:03;20.60;91.30
42479;DHT22;28110;47.080;9.476;2023-06-10T00:20:30;20.60;91.40
42479;DHT22;28110;47.080;9.476;2023-06-10T00:22:58;20.70;91.50
42479;DHT22;28110;47.080;9.476;2023-06-10T00:25:24;20.70;91.60
42479;DHT22;28110;47.080;9.476;2023-06-10T00:27:51;20.60;91.70
42479;DHT22;28110;47.080;9.476;2023-06-10T00:30:16;20.60;91.70
42479;DHT22;28110;47.080;9.476;2023-06-10T00:32:42;20.60;91.60
42479;DHT22;28110;47.080;9.476;2023-06-10T00:35:08;20.60;91.70
42479;DHT22;28110;47.080;9.476;2023-06-10T00:37:33;20.60;91.70
42479;DHT22;28110;47.080;9.476;2023-06-10T00:40:02;20.60;91.70
42479;DHT22;28110;47.080;9.476;2023-06-10T00:42:27;20.60;91.60
42479;DHT22;28110;47.080;9.476;2023-06-10T00:44:54;20.60;91.60
42479;DHT22;28110;47.080;9.476;2023-06-10T00:47:20;20.60;91.70
42479;DHT22;28110;47.080;9.476;2023-06-10T00:49:46;20.50;91.70
42479;DHT22;28110;47.080;9.476;2023-06-10T00:52:14;20.50;92.30
42479;DHT22;28110;47.080;9.476;2023-06-10T00:54:41;20.50;92.00
42479;DHT22;28110;47.080;9.476;2023-06-10T00:57:07;20.50;92.00
42479;DHT22;28110;47.080;9.476;2023-06-10T00:59:32;20.50;92.20
42479;DHT22;28110;47.080;9.476;2023-06-10T01:01:59;20.50;92.50
42479;DHT22;28110;47.080;9.476;2023-06-10T01:04:24;20.50;92.60
42479;DHT22;28110;47.080;9.476;2023-06-10T01:09:32;20.40;92.70
42479;DHT22;28110;47.080;9.476;2023-06-10T01:15:00;20.40;92.70
42479;DHT22;28110;47.080;9.476;2023-06-10T01:17:27;20.40;92.90
42479;DHT22;28110;47.080;9.476;2023-06-10T01:19:57;20.40;93.00
42479;DHT22;28110;47.080;9.476;2023-06-10T01:22:24;20.40;93.20
42479;DHT22;28110;47.080;9.476;2023-06-10T01:24:51;20.40;93.40
42479;DHT22;28110;47.080;9.476;2023-06-10T01:27:19;20.40;93.40
42479;DHT22;28110;47.080;9.476;2023-06-10T01:29:52;20.40;93.40
42479;DHT22;28110;47.080;9.476;2023-06-10T01:32:34;20.30;93.40
42479;DHT22;28110;47.080;9.476;2023-06-10T01:35:02;20.40;93.60
42479;DHT22;28110;47.080;9.476;2023-06-10T01:37:29;20.30;93.70
42479;DHT22;28110;47.080;9.476;2023-06-10T01:39:58;20.30;93.80
42479;DHT22;28110;47.080;9.476;2023-06-10T01:42:25;20.30;93.90
42479;DHT22;28110;47.080;9.476;2023-06-10T01:44:50;20.30;94.00
42479;DHT22;28110;47.080;9.476;2023-06-10T01:47:16;20.30;94.20
42479;DHT22;28110;47.080;9.476;2023-06-10T01:49:42;20.20;94.00
42479;DHT22;28110;47.080;9.476;2023-06-10T01:52:07;20.20;94.10
42479;DHT22;28110;47.080;9.476;2023-06-10T01:54:33;20.20;94.10
42479;DHT22;28110;47.080;9.476;2023-06-10T01:57:01;20.30;94.10
42479;DHT22;28110;47.080;9.476;2023-06-10T01:59:26;20.20;94.20
42479;DHT22;28110;47.080;9.476;2023-06-10T02:01:52;20.30;94.30
42479;DHT22;28110;47.080;9.476;2023-06-10T02:04:17;20.20;94.40
42479;DHT22;28110;47.080;9.476;2023-06-10T02:06:43;20.20;94.50
42479;DHT22;28110;47.080;9.476;2023-06-10T02:09:09;20.20;94.50
42479;DHT22;28110;47.080;9.476;2023-06-10T02:11:34;20.10;94.60
42479;DHT22;28110;47.080;9.476;2023-06-10T02:14:00;20.10;94.70
42479;DHT22;28110;47.080;9.476;2023-06-10T02:16:25;20.10;95.00
42479;DHT22;28110;47.080;9.476;2023-06-10T02:18:51;20.10;94.90
42479;DHT22;28110;47.080;9.476;2023-06-10T02:21:17;20.00;94.90
42479;DHT22;28110;47.080;9.476;2023-06-10T02:23:42;20.00;95.00
42479;DHT22;28110;47.080;9.476;2023-06-10T02:26:08;20.00;95.10
42479;DHT22;28110;47.080;9.476;2023-06-10T02:28:34;19.90;95.20
42479;DHT22;28110;47.080;9.476;2023-06-10T02:30:59;19.90;95.40
42479;DHT22;28110;47.080;9.476;2023-06-10T02:33:25;19.90;95.40
42479;DHT22;28110;47.080;9.476;2023-06-10T02:35:52;19.90;95.40
42479;DHT22;28110;47.080;9.476;2023-06-10T02:38:18;19.90;95.30
42479;DHT22;28110;47.080;9.476;2023-06-10T02:40:43;19.80;95.40
42479;DHT22;28110;47.080;9.476;2023-06-10T02:43:09;19.80;95.60
42479;DHT22;28110;47.080;9.476;2023-06-10T02:45:35;19.80;95.60
42479;DHT22;28110;47.080;9.476;2023-06-10T02:48:00;19.80;95.80
42479;DHT22;28110;47.080;9.476;2023-06-10T02:50:26;19.70;96.00
42479;DHT22;28110;47.080;9.476;2023-06-10T02:52:51;19.70;96.00
42479;DHT22;28110;47.080;9.476;2023-06-10T02:55:17;19.70;96.00
42479;DHT22;28110;47.080;9.476;2023-06-10T02:57:42;19.70;96.00
42479;DHT22;28110;47.080;9.476;2023-06-10T03:00:08;19.60;96.20
42479;DHT22;28110;47.080;9.476;2023-06-10T03:02:39;19.70;96.30
42479;DHT22;28110;47.080;9.476;2023-06-10T03:05:05;19.60;96.30
42479;DHT22;28110;47.080;9.476;2023-06-10T03:07:35;19.60;96.50
42479;DHT22;28110;47.080;9.476;2023-06-10T03:10:01;19.60;96.50
42479;DHT22;28110;47.080;9.476;2023-06-10T03:12:26;19.50;96.60
42479;DHT22;28110;47.080;9.476;2023-06-10T03:14:52;19.50;96.60
42479;DHT22;28110;47.080;9.476;2023-06-10T03:17:17;19.50;96.90
42479;DHT22;28110;47.080;9.476;2023-06-10T03:19:43;19.50;97.10
42479;DHT22;28110;47.080;9.476;2023-06-10T03:22:10;19.50;97.20
42479;DHT22;28110;47.080;9.476;2023-06-10T03:24:36;19.50;97.20
42479;DHT22;28110;47.080;9.476;2023-06-10T03:27:08;19.40;97.20
42479;DHT22;28110;47.080;9.476;2023-06-10T03:29:33;19.40;97.30
42479;DHT22;28110;47.080;9.476;2023-06-10T03:31:59;19.40;97.30
42479;DHT22;28110;47.080;9.476;2023-06-10T03:34:25;19.40;97.50
42479;DHT22;28110;47.080;9.476;2023-06-10T03:36:50;19.40;97.50
42479;DHT22;28110;47.080;9.476;2023-06-10T03:39:16;19.40;97.90
42479;DHT22;28110;47.080;9.476;2023-06-10T03:41:42;19.40;98.30
42479;DHT22;28110;47.080;9.476;2023-06-10T03:44:07;19.40;98.50
42479;DHT22;28110;47.080;9.476;2023-06-10T03:46:32;19.30;98.70
42479;DHT22;28110;47.080;9.476;2023-06-10T03:48:58;19.30;98.90
42479;DHT22;28110;47.080;9.476;2023-06-10T03:51:26;19.20;99.10
42479;DHT22;28110;47.080;9.476;2023-06-10T03:53:51;19.20;99.30
42479;DHT22;28110;47.080;9.476;2023-06-10T03:56:17;19.20;99.40
42479;DHT22;28110;47.080;9.476;2023-06-10T03:58:43;19.20;99.60
42479;DHT22;28110;47.080;9.476;2023-06-10T04:01:08;19.10;99.80
42479;DHT22;28110;47.080;9.476;2023-06-10T04:03:34;19.10;99.90
42479;DHT22;28110;47.080;9.476;2023-06-10T04:05:59;19.10;99.90
42479;DHT22;28110;47.080;9.476;2023-06-10T04:08:25;19.10;99.90
42479;DHT22;28110;47.080;9.476;2023-06-10T04:10:51;19.10;99.90
42479;DHT22;28110;47.080;9.476;2023-06-10T04:13:16;19.10;99.90
42479;DHT22;28110;47.080;9.476;2023-06-10T04:15:42;19.10;99.90
42479;DHT22;28110;47.080;9.476;2023-06-10T04:18:08;19.20;99.90
42479;DHT22;28110;47.080;9.476;2023-06-10T04:20:33;19.10;99.90
42479;DHT22;28110;47.080;9.476;2023-06-10T04:22:59;19.20;99.90
42479;DHT22;28110;47.080;9.476;2023-06-10T04:25:25;19.20;99.90
42479;DHT22;28110;47.080;9.476;2023-06-10T04:27:51;19.20;99.90
42479;DHT22;28110;47.080;9.476;2023-06-10T04:30:17;19.30;99.90
42479;DHT22;28110;47.080;9.476;2023-06-10T04:32:43;19.20;99.90
42479;DHT22;28110;47.080;9.476;2023-06-10T04:35:11;19.20;99.90
42479;DHT22;28110;47.080;9.476;2023-06-10T04:37:38;19.30;99.90
42479;DHT22;28110;47.080;9.476;2023-06-10T04:40:04;19.30;99.90
42479;DHT22;28110;47.080;9.476;2023-06-10T04:42:30;19.30;99.90
42479;DHT22;28110;47.080;9.476;2023-06-10T04:44:56;19.30;99.90
42479;DHT22;28110;47.080;9.476;2023-06-10T04:47:21;19.30;99.90
42479;DHT22;28110;47.080;9.476;2023-06-10T04:49:47;19.30;99.90
42479;DHT22;28110;47.080;9.476;2023-06-10T04:52:13;19.30;99.90
42479;DHT22;28110;47.080;9.476;2023-06-10T04:54:39;19.30;99.90
42479;DHT22;28110;47.080;9.476;2023-06-10T04:57:06;19.30;99.90
42479;DHT22;28110;47.080;9.476;2023-06-10T04:59:33;19.30;99.90
42479;DHT22;28110;47.080;9.476;2023-06-10T05:01:58;19.30;99.90
42479;DHT22;28110;47.080;9.476;2023-06-10T05:04:24;19.30;99.90
42479;DHT22;28110;47.080;9.476;2023-06-10T05:06:50;19.40;99.90
42479;DHT22;28110;47.080;9.476;2023-06-10T05:09:15;19.40;99.90
42479;DHT22;28110;47.080;9.476;2023-06-10T05:11:41;19.40;99.90
42479;DHT22;28110;47.080;9.476;2023-06-10T05:14:06;19.50;99.90
42479;DHT22;28110;47.080;9.476;2023-06-10T05:16:32;19.50;99.90
42479;DHT22;28110;47.080;9.476;2023-06-10T05:18:57;19.50;99.90
42479;DHT22;28110;47.080;9.476;2023-06-10T05:21:23;19.50;99.90
42479;DHT22;28110;47.080;9.476;2023-06-10T05:23:49;19.70;99.90
42479;DHT22;28110;47.080;9.476;2023-06-10T05:26:15;19.80;99.90
42479;DHT22;28110;47.080;9.476;2023-06-10T05:28:40;20.00;99.90
42479;DHT22;28110;47.080;9.476;2023-06-10T05:31:06;20.10;99.90
42479;DHT22;28110;47.080;9.476;2023-06-10T05:33:32;20.30;99.90
42479;DHT22;28110;47.080;9.476;2023-06-10T05:35:57;20.50;99.90
42479;DHT22;28110;47.080;9.476;2023-06-10T05:38:23;20.60;99.90
42479;DHT22;28110;47.080;9.476;2023-06-10T05:40:48;20.60;99.90
42479;DHT22;28110;47.080;9.476;2023-06-10T05:43:14;20.70;99.90
42479;DHT22;28110;47.080;9.476;2023-06-10T05:45:42;20.70;99.50
42479;DHT22;28110;47.080;9.476;2023-06-10T05:48:07;20.60;99.80
42479;DHT22;28110;47.080;9.476;2023-06-10T05:50:34;20.60;99.90
42479;DHT22;28110;47.080;9.476;2023-06-10T05:53:04;20.70;99.90
42479;DHT22;28110;47.080;9.476;2023-06-10T05:55:29;21.00;99.90
42479;DHT22;28110;47.080;9.476;2023-06-10T05:58:01;21.10;99.20
42479;DHT22;28110;47.080;9.476;2023-06-10T06:00:27;21.20;99.10
42479;DHT22;28110;47.080;9.476;2023-06-10T06:02:53;21.40;98.60
42479;DHT22;28110;47.080;9.476;2023-06-10T06:05:19;21.50;98.50
42479;DHT22;28110;47.080;9.476;2023-06-10T06:07:45;21.70;98.40
42479;DHT22;28110;47.080;9.476;2023-06-10T06:10:10;21.90;97.70
42479;DHT22;28110;47.080;9.476;2023-06-10T06:12:36;22.00;97.60
42479;DHT22;28110;47.080;9.476;2023-06-10T06:15:02;22.30;98.20
42479;DHT22;28110;47.080;9.476;2023-06-10T06:17:27;22.40;97.10
42479;DHT22;28110;47.080;9.476;2023-06-10T06:19:53;22.50;96.90
42479;DHT22;28110;47.080;9.476;2023-06-10T06:22:18;22.40;96.40
42479;DHT22;28110;47.080;9.476;2023-06-10T06:24:46;22.30;97.10
42479;DHT22;28110;47.080;9.476;2023-06-10T06:27:12;22.10;97.60
42479;DHT22;28110;47.080;9.476;2023-06-10T06:29:38;21.90;98.10
42479;DHT22;28110;47.080;9.476;2023-06-10T06:32:03;21.80;98.30
42479;DHT22;28110;47.080;9.476;2023-06-10T06:34:29;21.60;98.50
42479;DHT22;28110;47.080;9.476;2023-06-10T06:36:54;21.60;98.20
42479;DHT22;28110;47.080;9.476;2023-06-10T06:39:20;21.50;97.90
42479;DHT22;28110;47.080;9.476;2023-06-10T06:41:45;21.40;98.50
42479;DHT22;28110;47.080;9.476;2023-06-10T06:44:11;21.40;97.60
42479;DHT22;28110;47.080;9.476;2023-06-10T06:46:36;21.40;97.60
42479;DHT22;28110;47.080;9.476;2023-06-10T06:49:02;21.30;98.10
42479;DHT22;28110;47.080;9.476;2023-06-10T06:51:27;21.30;98.10
42479;DHT22;28110;47.080;9.476;2023-06-10T06:53:53;21.30;98.20
42479;DHT22;28110;47.080;9.476;2023-06-10T06:56:22;21.20;98.20
42479;DHT22;28110;47.080;9.476;2023-06-10T06:58:47;21.20;98.30
42479;DHT22;28110;47.080;9.476;2023-06-10T07:01:13;21.20;98.70
42479;DHT22;28110;47.080;9.476;2023-06-10T07:03:38;21.20;98.50
42479;DHT22;28110;47.080;9.476;2023-06-10T07:06:04;21.40;98.00
42479;DHT22;28110;47.080;9.476;2023-06-10T07:08:30;21.50;97.70
42479;DHT22;28110;47.080;9.476;2023-06-10T07:10:55;21.40;97.50
42479;DHT22;28110;47.080;9.476;2023-06-10T07:13:21;21.50;97.90
42479;DHT22;28110;47.080;9.476;2023-06-10T07:15:47;21.70;97.20
42479;DHT22;28110;47.080;9.476;2023-06-10T07:18:12;21.80;96.80
42479;DHT22;28110;47.080;9.476;2023-06-10T07:20:38;22.00;97.40
42479;DHT22;28110;47.080;9.476;2023-06-10T07:23:03;22.30;97.40
42479;DHT22;28110;47.080;9.476;2023-06-10T07:25:29;22.40;95.70
42479;DHT22;28110;47.080;9.476;2023-06-10T07:27:54;22.50;96.20
42479;DHT22;28110;47.080;9.476;2023-06-10T07:30:20;22.70;96.80
42479;DHT22;28110;47.080;9.476;2023-06-10T07:32:45;22.80;96.20
42479;DHT22;28110;47.080;9.476;2023-06-10T07:35:11;22.90;95.30
42479;DHT22;28110;47.080;9.476;2023-06-10T07:37:37;23.00;94.90
42479;DHT22;28110;47.080;9.476;2023-06-10T07:40:03;23.10;95.50
42479;DHT22;28110;47.080;9.476;2023-06-10T07:42:28;23.20;94.90
42479;DHT22;28110;47.080;9.476;2023-06-10T07:44:54;23.20;94.50
42479;DHT22;28110;47.080;9.476;2023-06-10T07:47:20;23.20;94.40
42479;DHT22;28110;47.080;9.476;2023-06-10T07:49:45;23.20;94.00
42479;DHT22;28110;47.080;9.476;2023-06-10T07:52:11;23.30;94.10
42479;DHT22;28110;47.080;9.476;2023-06-10T07:54:36;23.30;94.50
42479;DHT22;28110;47.080;9.476;2023-06-10T07:57:02;23.30;94.10
42479;DHT22;28110;47.080;9.476;2023-06-10T07:59:27;23.20;94.50
42479;DHT22;28110;47.080;9.476;2023-06-10T08:01:53;23.40;94.40
42479;DHT22;28110;47.080;9.476;2023-06-10T08:04:19;23.40;94.00
42479;DHT22;28110;47.080;9.476;2023-06-10T08:06:44;23.60;94.30
42479;DHT22;28110;47.080;9.476;2023-06-10T08:09:10;23.60;93.50
42479;DHT22;28110;47.080;9.476;2023-06-10T08:11:36;23.60;92.90
42479;DHT22;28110;47.080;9.476;2023-06-10T08:14:01;23.70;93.40
42479;DHT22;28110;47.080;9.476;2023-06-10T08:16:27;23.80;93.00
42479;DHT22;28110;47.080;9.476;2023-06-10T08:18:52;23.70;92.80
42479;DHT22;28110;47.080;9.476;2023-06-10T08:21:18;23.70;93.60
42479;DHT22;28110;47.080;9.476;2023-06-10T08:23:44;23.70;93.00
42479;DHT22;28110;47.080;9.476;2023-06-10T08:26:10;23.80;93.00
42479;DHT22;28110;47.080;9.476;2023-06-10T08:28:36;23.60;93.10
42479;DHT22;28110;47.080;9.476;2023-06-10T08:31:01;23.60;93.10
42479;DHT22;28110;47.080;9.476;2023-06-10T08:33:27;23.60;93.20
42479;DHT22;28110;47.080;9.476;2023-06-10T08:35:52;23.80;92.20
42479;DHT22;28110;47.080;9.476;2023-06-10T08:38:18;24.00;92.40
42479;DHT22;28110;47.080;9.476;2023-06-10T08:40:43;24.00;92.30
42479;DHT22;28110;47.080;9.476;2023-06-10T08:46:01;24.20;92.40
42479;DHT22;28110;47.080;9.476;2023-06-10T08:48:31;24.20;92.00
42479;DHT22;28110;47.080;9.476;2023-06-10T08:50:59;24.30;92.20
42479;DHT22;28110;47.080;9.476;2023-06-10T08:53:26;24.40;92.40
42479;DHT22;28110;47.080;9.476;2023-06-10T08:55:57;24.40;92.00
42479;DHT22;28110;47.080;9.476;2023-06-10T08:58:24;24.30;92.10
42479;DHT22;28110;47.080;9.476;2023-06-10T09:00:51;24.30;92.80
42479;DHT22;28110;47.080;9.476;2023-06-10T09:03:18;24.30;92.50
42479;DHT22;28110;47.080;9.476;2023-06-10T09:05:44;24.30;91.50
42479;DHT22;28110;47.080;9.476;2023-06-10T09:08:10;24.30;92.00
42479;DHT22;28110;47.080;9.476;2023-06-10T09:10:36;24.30;92.60
42479;DHT22;28110;47.080;9.476;2023-06-10T09:13:01;24.30;92.30
42479;DHT22;28110;47.080;9.476;2023-06-10T09:15:27;24.40;92.30
42479;DHT22;28110;47.080;9.476;2023-06-10T09:17:52;24.50;91.80
42479;DHT22;28110;47.080;9.476;2023-06-10T09:20:18;24.40;92.00
42479;DHT22;28110;47.080;9.476;2023-06-10T09:22:44;24.30;91.70
42479;DHT22;28110;47.080;9.476;2023-06-10T09:25:11;24.30;91.50
42479;DHT22;28110;47.080;9.476;2023-06-10T09:27:47;24.30;92.20
42479;DHT22;28110;47.080;9.476;2023-06-10T09:30:27;24.40;92.40
42479;DHT22;28110;47.080;9.476;2023-06-10T09:32:57;24.30;92.30
42479;DHT22;28110;47.080;9.476;2023-06-10T09:35:27;24.40;92.80
42479;DHT22;28110;47.080;9.476;2023-06-10T09:37:54;24.50;91.40
42479;DHT22;28110;47.080;9.476;2023-06-10T09:40:20;24.60;91.50
42479;DHT22;28110;47.080;9.476;2023-06-10T09:42:45;24.60;91.20
42479;DHT22;28110;47.080;9.476;2023-06-10T09:45:14;24.80;91.40
42479;DHT22;28110;47.080;9.476;2023-06-10T09:47:40;25.10;90.80
42479;DHT22;28110;47.080;9.476;2023-06-10T09:50:05;25.00;90.70
42479;DHT22;28110;47.080;9.476;2023-06-10T09:52:31;24.90;91.80
42479;DHT22;28110;47.080;9.476;2023-06-10T09:55:01;25.00;91.20
42479;DHT22;28110;47.080;9.476;2023-06-10T09:57:31;25.00;91.80
42479;DHT22;28110;47.080;9.476;2023-06-10T09:59:57;24.90;91.40
42479;DHT22;28110;47.080;9.476;2023-06-10T10:02:23;24.90;91.70
42479;DHT22;28110;47.080;9.476;2023-06-10T10:04:49;24.90;92.80
42479;DHT22;28110;47.080;9.476;2023-06-10T10:07:14;25.10;92.40
42479;DHT22;28110;47.080;9.476;2023-06-10T10:09:41;25.00;92.20
42479;DHT22;28110;47.080;9.476;2023-06-10T10:12:16;25.20;92.50
42479;DHT22;28110;47.080;9.476;2023-06-10T10:14:46;25.10;91.70
42479;DHT22;28110;47.080;9.476;2023-06-10T10:17:14;25.20;92.40
42479;DHT22;28110;47.080;9.476;2023-06-10T10:19:46;25.40;92.60
42479;DHT22;28110;47.080;9.476;2023-06-10T10:22:19;25.50;92.50
42479;DHT22;28110;47.080;9.476;2023-06-10T10:24:49;25.40;91.60
42479;DHT22;28110;47.080;9.476;2023-06-10T10:27:24;25.30;92.00
42479;DHT22;28110;47.080;9.476;2023-06-10T10:29:52;25.20;92.70
42479;DHT22;28110;47.080;9.476;2023-06-10T10:32:23;25.10;92.40
42479;DHT22;28110;47.080;9.476;2023-06-10T10:35:06;25.10;92.30
42479;DHT22;28110;47.080;9.476;2023-06-10T10:37:33;25.10;92.20
42479;DHT22;28110;47.080;9.476;2023-06-10T10:40:00;25.30;92.70
42479;DHT22;28110;47.080;9.476;2023-06-10T10:42:27;25.50;92.70
42479;DHT22;28110;47.080;9.476;2023-06-10T10:44:53;25.70;92.10
42479;DHT22;28110;47.080;9.476;2023-06-10T10:47:21;25.90;91.90
42479;DHT22;28110;47.080;9.476;2023-06-10T10:49:51;26.00;92.20
42479;DHT22;28110;47.080;9.476;2023-06-10T10:52:18;26.00;91.60
42479;DHT22;28110;47.080;9.476;2023-06-10T10:54:45;26.00;91.50
42479;DHT22;28110;47.080;9.476;2023-06-10T10:57:17;25.90;91.90
42479;DHT22;28110;47.080;9.476;2023-06-10T11:00:01;25.80;91.60
42479;DHT22;28110;47.080;9.476;2023-06-10T11:02:40;25.80;92.00
42479;DHT22;28110;47.080;9.476;2023-06-10T11:05:07;25.60;91.10
42479;DHT22;28110;47.080;9.476;2023-06-10T11:07:34;25.50;91.40
42479;DHT22;28110;47.080;9.476;2023-06-10T11:10:12;25.50;91.40
42479;DHT22;28110;47.080;9.476;2023-06-10T11:12:51;25.60;91.20
42479;DHT22;28110;47.080;9.476;2023-06-10T11:15:28;25.70;91.90
42479;DHT22;28110;47.080;9.476;2023-06-10T11:18:11;25.90;91.90
42479;DHT22;28110;47.080;9.476;2023-06-10T11:31:31;26.00;91.00
42479;DHT22;28110;47.080;9.476;2023-06-10T11:34:02;26.10;91.40
42479;DHT22;28110;47.080;9.476;2023-06-10T11:36:29;26.30;91.00
42479;DHT22;28110;47.080;9.476;2023-06-10T11:39:05;26.40;90.50
42479;DHT22;28110;47.080;9.476;2023-06-10T11:41:32;26.20;90.70
42479;DHT22;28110;47.080;9.476;2023-06-10T11:44:09;26.30;90.80
42479;DHT22;28110;47.080;9.476;2023-06-10T11:46:35;26.40;90.20
42479;DHT22;28110;47.080;9.476;2023-06-10T11:49:01;26.50;90.50
42479;DHT22;28110;47.080;9.476;2023-06-10T11:51:37;26.40;90.00
42479;DHT22;28110;47.080;9.476;2023-06-10T11:54:04;26.40;90.00
42479;DHT22;28110;47.080;9.476;2023-06-10T11:56:31;26.50;90.10
42479;DHT22;28110;47.080;9.476;2023-06-10T12:01:24;26.60;89.70
42479;DHT22;28110;47.080;9.476;2023-06-10T12:03:58;26.60;88.70
42479;DHT22;28110;47.080;9.476;2023-06-10T12:06:24;26.70;88.70
42479;DHT22;28110;47.080;9.476;2023-06-10T12:08:49;26.60;88.10
42479;DHT22;28110;47.080;9.476;2023-06-10T12:11:15;26.60;87.10
42479;DHT22;28110;47.080;9.476;2023-06-10T12:13:48;26.60;86.00
42479;DHT22;28110;47.080;9.476;2023-06-10T12:16:15;26.50;86.60
42479;DHT22;28110;47.080;9.476;2023-06-10T12:18:43;26.60;85.60
42479;DHT22;28110;47.080;9.476;2023-06-10T12:21:17;26.70;85.30
42479;DHT22;28110;47.080;9.476;2023-06-10T12:24:00;26.70;84.40
42479;DHT22;28110;47.080;9.476;2023-06-10T12:26:40;26.80;84.50
42479;DHT22;28110;47.080;9.476;2023-06-10T12:29:17;26.90;84.90
42479;DHT22;28110;47.080;9.476;2023-06-10T12:32:03;26.80;83.40
42479;DHT22;28110;47.080;9.476;2023-06-10T12:34:38;26.80;82.90
42479;DHT22;28110;47.080;9.476;2023-06-10T12:37:05;26.90;82.60
42479;DHT22;28110;47.080;9.476;2023-06-10T12:39:32;27.00;81.60
42479;DHT22;28110;47.080;9.476;2023-06-10T12:41:59;26.90;79.70
42479;DHT22;28110;47.080;9.476;2023-06-10T12:44:31;26.90;81.90
42479;DHT22;28110;47.080;9.476;2023-06-10T12:46:57;27.10;80.70
42479;DHT22;28110;47.080;9.476;2023-06-10T12:49:23;27.10;80.30
42479;DHT22;28110;47.080;9.476;2023-06-10T12:51:48;27.00;79.50
42479;DHT22;28110;47.080;9.476;2023-06-10T12:54:14;27.00;77.70
42479;DHT22;28110;47.080;9.476;2023-06-10T12:56:40;27.10;79.30
42479;DHT22;28110;47.080;9.476;2023-06-10T12:59:05;27.00;77.30
42479;DHT22;28110;47.080;9.476;2023-06-10T13:01:31;27.00;79.70
42479;DHT22;28110;47.080;9.476;2023-06-10T13:03:58;27.30;77.90
42479;DHT22;28110;47.080;9.476;2023-06-10T13:06:23;27.30;78.70
42479;DHT22;28110;47.080;9.476;2023-06-10T13:08:49;27.30;79.60
42479;DHT22;28110;47.080;9.476;2023-06-10T13:11:16;27.40;78.30
42479;DHT22;28110;47.080;9.476;2023-06-10T13:13:41;27.40;78.50
42479;DHT22;28110;47.080;9.476;2023-06-10T13:16:08;27.30;77.70
42479;DHT22;28110;47.080;9.476;2023-06-10T13:18:33;27.30;77.40
42479;DHT22;28110;47.080;9.476;2023-06-10T13:21:03;27.30;78.00
42479;DHT22;28110;47.080;9.476;2023-06-10T13:23:29;27.30;78.20
42479;DHT22;28110;47.080;9.476;2023-06-10T13:25:55;27.30;76.70
42479;DHT22;28110;47.080;9.476;2023-06-10T13:28:21;27.00;76.10
42479;DHT22;28110;47.080;9.476;2023-06-10T13:30:46;27.00;77.60
42479;DHT22;28110;47.080;9.476;2023-06-10T13:33:12;26.90;77.10
42479;DHT22;28110;47.080;9.476;2023-06-10T13:35:37;27.00;77.20
42479;DHT22;28110;47.080;9.476;2023-06-10T13:38:03;27.00;75.80
42479;DHT22;28110;47.080;9.476;2023-06-10T13:40:29;27.00;77.00
42479;DHT22;28110;47.080;9.476;2023-06-10T13:42:54;27.10;78.00
42479;DHT22;28110;47.080;9.476;2023-06-10T13:45:20;27.10;75.40
42479;DHT22;28110;47.080;9.476;2023-06-10T13:47:45;27.00;75.10
42479;DHT22;28110;47.080;9.476;2023-06-10T13:50:11;27.00;76.30
42479;DHT22;28110;47.080;9.476;2023-06-10T13:52:38;27.00;77.00
42479;DHT22;28110;47.080;9.476;2023-06-10T13:55:04;27.00;76.30
42479;DHT22;28110;47.080;9.476;2023-06-10T13:57:30;26.80;77.90
42479;DHT22;28110;47.080;9.476;2023-06-10T13:59:55;26.80;75.90
42479;DHT22;28110;47.080;9.476;2023-06-10T14:02:21;26.80;75.90
42479;DHT22;28110;47.080;9.476;2023-06-10T14:04:47;26.80;75.60
42479;DHT22;28110;47.080;9.476;2023-06-10T14:07:13;26.80;76.80
42479;DHT22;28110;47.080;9.476;2023-06-10T14:09:38;26.60;76.10
42479;DHT22;28110;47.080;9.476;2023-06-10T14:12:04;26.50;75.50
42479;DHT22;28110;47.080;9.476;2023-06-10T14:14:30;26.50;75.40
42479;DHT22;28110;47.080;9.476;2023-06-10T14:16:58;26.50;74.60
42479;DHT22;28110;47.080;9.476;2023-06-10T14:19:24;26.50;74.70
42479;DHT22;28110;47.080;9.476;2023-06-10T14:21:49;26.50;75.70
42479;DHT22;28110;47.080;9.476;2023-06-10T14:24:15;26.50;75.40
42479;DHT22;28110;47.080;9.476;2023-06-10T14:26:40;26.60;75.70
42479;DHT22;28110;47.080;9.476;2023-06-10T14:29:06;26.50;72.60
42479;DHT22;28110;47.080;9.476;2023-06-10T14:31:32;26.60;74.00
42479;DHT22;28110;47.080;9.476;2023-06-10T14:33:58;26.70;74.60
42479;DHT22;28110;47.080;9.476;2023-06-10T14:36:23;26.70;73.50
42479;DHT22;28110;47.080;9.476;2023-06-10T14:38:49;26.80;73.00
42479;DHT22;28110;47.080;9.476;2023-06-10T14:41:15;26.80;73.60
42479;DHT22;28110;47.080;9.476;2023-06-10T14:43:40;26.80;74.30
42479;DHT22;28110;47.080;9.476;2023-06-10T14:46:06;27.00;75.40
42479;DHT22;28110;47.080;9.476;2023-06-10T14:48:31;26.90;73.30
42479;DHT22;28110;47.080;9.476;2023-06-10T14:50:57;26.80;73.20
42479;DHT22;28110;47.080;9.476;2023-06-10T14:53:22;26.80;73.40
42479;DHT22;28110;47.080;9.476;2023-06-10T14:55:48;26.80;75.00
42479;DHT22;28110;47.080;9.476;2023-06-10T14:58:14;26.80;72.50
42479;DHT22;28110;47.080;9.476;2023-06-10T15:00:39;26.80;72.10
42479;DHT22;28110;47.080;9.476;2023-06-10T15:03:05;26.70;70.50
42479;DHT22;28110;47.080;9.476;2023-06-10T15:05:30;26.70;71.70
42479;DHT22;28110;47.080;9.476;2023-06-10T15:07:56;26.70;69.80
42479;DHT22;28110;47.080;9.476;2023-06-10T15:10:22;26.60;69.10
42479;DHT22;28110;47.080;9.476;2023-06-10T15:12:47;26.60;69.80
42479;DHT22;28110;47.080;9.476;2023-06-10T15:15:13;26.60;69.80
42479;DHT22;28110;47.080;9.476;2023-06-10T15:17:39;26.60;69.60
42479;DHT22;28110;47.080;9.476;2023-06-10T15:20:05;26.60;69.50
42479;DHT22;28110;47.080;9.476;2023-06-10T15:22:31;26.40;70.40
42479;DHT22;28110;47.080;9.476;2023-06-10T15:24:56;26.40;71.00
42479;DHT22;28110;47.080;9.476;2023-06-10T15:27:23;26.50;72.10
42479;DHT22;28110;47.080;9.476;2023-06-10T15:29:48;26.60;72.40
42479;DHT22;28110;47.080;9.476;2023-06-10T15:32:14;26.60;69.50
42479;DHT22;28110;47.080;9.476;2023-06-10T15:34:40;26.70;71.90
42479;DHT22;28110;47.080;9.476;2023-06-10T15:37:05;26.60;69.60
42479;DHT22;28110;47.080;9.476;2023-06-10T15:39:31;26.60;70.30
42479;DHT22;28110;47.080;9.476;2023-06-10T15:41:56;26.70;69.70
42479;DHT22;28110;47.080;9.476;2023-06-10T15:44:22;26.70;71.00
42479;DHT22;28110;47.080;9.476;2023-06-10T15:46:48;26.80;70.90
42479;DHT22;28110;47.080;9.476;2023-06-10T15:49:14;26.80;70.20